createdAt,value
2019-05-05T00:00:57.087Z,0.00
2019-05-05T00:01:57.128Z,0.00
2019-05-05T00:02:57.246Z,0.00
2019-05-05T00:03:57.260Z,0.00
2019-05-05T00:04:57.337Z,0.00
2019-05-05T00:05:57.382Z,0.00
2019-05-05T00:06:57.371Z,0.00
2019-05-05T00:07:57.465Z,0.00
2019-05-05T00:08:57.498Z,0.00
2019-05-05T00:09:57.570Z,0.00
2019-05-05T00:10:57.677Z,0.00
2019-05-05T00:11:57.672Z,0.00
2019-05-05T00:12:57.681Z,0.00
2019-05-05T00:13:57.801Z,0.00
2019-05-05T00:14:57.815Z,0.00
2019-05-05T00:15:57.879Z,0.00
2019-05-05T00:16:57.882Z,0.00
2019-05-05T00:17:57.956Z,0.00
2019-05-05T00:18:58.030Z,0.00
2019-05-05T00:19:58.108Z,0.00
2019-05-05T00:20:58.163Z,0.00
2019-05-05T00:21:58.224Z,0.00
2019-05-05T00:22:58.198Z,0.00
2019-05-05T00:23:58.240Z,0.00
2019-05-05T00:24:58.379Z,0.00
2019-05-05T00:25:58.341Z,0.00
2019-05-05T00:26:58.503Z,0.00
2019-05-05T00:27:58.476Z,0.00
2019-05-05T00:28:58.529Z,0.00
2019-05-05T00:29:58.633Z,0.00
2019-05-05T00:30:58.615Z,0.00
2019-05-05T00:31:58.717Z,0.00
2019-05-05T00:32:58.767Z,0.00
2019-05-05T00:33:58.840Z,0.00
2019-05-05T00:34:58.877Z,0.00
2019-05-05T00:35:58.906Z,0.00
2019-05-05T00:36:58.999Z,0.00
2019-05-05T00:37:59.006Z,0.00
2019-05-05T00:38:59.029Z,0.00
2019-05-05T00:39:59.108Z,0.00
2019-05-05T00:40:59.149Z,0.00
2019-05-05T00:41:59.221Z,0.00
2019-05-05T00:42:59.236Z,0.00
2019-05-05T00:43:59.266Z,0.00
2019-05-05T00:44:59.399Z,0.00
2019-05-05T00:45:59.401Z,0.00
2019-05-05T00:46:59.555Z,0.00
2019-05-05T00:47:59.522Z,0.00
2019-05-05T00:48:59.565Z,0.00
2019-05-05T00:49:59.623Z,0.00
2019-05-05T00:50:59.653Z,0.00
2019-05-05T00:51:59.677Z,0.00
2019-05-05T00:52:59.751Z,0.00
2019-05-05T00:53:59.840Z,0.00
2019-05-05T00:54:59.906Z,0.00
2019-05-05T00:55:59.881Z,0.00
2019-05-05T00:57:00.015Z,0.00
2019-05-05T00:58:00.019Z,0.00
2019-05-05T00:59:00.057Z,0.00
2019-05-05T01:00:00.083Z,0.00
2019-05-05T01:01:00.216Z,0.00
2019-05-05T01:02:00.890Z,0.00
2019-05-05T01:03:00.283Z,0.00
2019-05-05T01:04:00.895Z,0.00
2019-05-05T01:05:00.428Z,0.00
2019-05-05T01:06:00.421Z,0.00
2019-05-05T01:07:00.538Z,0.00
2019-05-05T01:08:00.491Z,0.00
2019-05-05T01:09:00.562Z,0.00
2019-05-05T01:10:00.593Z,0.00
2019-05-05T01:11:00.644Z,0.00
2019-05-05T01:12:00.694Z,0.00
2019-05-05T01:13:00.746Z,0.00
2019-05-05T01:14:00.809Z,0.00
2019-05-05T01:15:00.849Z,0.00
2019-05-05T01:16:00.899Z,0.00
2019-05-05T01:17:00.953Z,0.00
2019-05-05T01:18:02.287Z,0.00
2019-05-05T01:19:01.110Z,0.00
2019-05-05T01:20:04.551Z,0.00
2019-05-05T01:21:01.210Z,0.00
2019-05-05T01:22:01.259Z,0.00
2019-05-05T01:23:01.364Z,0.00
2019-05-05T01:24:01.365Z,0.00
2019-05-05T01:25:01.364Z,0.00
2019-05-05T01:26:01.416Z,0.00
2019-05-05T01:27:01.483Z,0.00
2019-05-05T01:28:01.510Z,0.00
2019-05-05T01:29:01.561Z,0.00
2019-05-05T01:30:01.615Z,0.00
2019-05-05T01:31:01.667Z,0.00
2019-05-05T01:32:01.715Z,0.00
2019-05-05T01:33:01.870Z,0.00
2019-05-05T01:34:01.817Z,0.00
2019-05-05T01:35:01.868Z,0.00
2019-05-05T01:36:01.920Z,0.00
2019-05-05T01:37:01.969Z,0.00
2019-05-05T01:38:02.030Z,0.00
2019-05-05T01:39:04.127Z,0.00
2019-05-05T01:40:02.121Z,0.00
2019-05-05T01:41:04.105Z,0.00
2019-05-05T01:42:02.224Z,0.00
2019-05-05T01:43:02.275Z,0.00
2019-05-05T01:44:02.327Z,0.00
2019-05-05T01:45:04.403Z,0.00
2019-05-05T01:46:02.428Z,0.00
2019-05-05T01:47:02.479Z,0.00
2019-05-05T01:48:02.530Z,0.00
2019-05-05T01:49:02.579Z,0.00
2019-05-05T01:50:15.225Z,0.00
2019-05-05T01:51:04.843Z,0.00
2019-05-05T01:52:04.382Z,0.00
2019-05-05T01:53:04.618Z,0.00
2019-05-05T01:54:05.020Z,0.00
2019-05-05T01:55:02.885Z,0.00
2019-05-05T01:56:04.903Z,0.00
2019-05-05T01:57:05.272Z,0.00
2019-05-05T01:58:04.715Z,0.00
2019-05-05T01:59:05.087Z,0.00
2019-05-05T02:00:04.244Z,0.00
2019-05-05T02:01:05.018Z,0.00
2019-05-05T02:02:04.299Z,0.00
2019-05-05T02:03:04.538Z,0.00
2019-05-05T02:04:05.420Z,0.00
2019-05-05T02:05:04.618Z,0.00
2019-05-05T02:06:05.232Z,0.00
2019-05-05T02:07:05.369Z,0.00
2019-05-05T02:08:04.981Z,0.00
2019-05-05T02:09:05.299Z,0.00
2019-05-05T02:10:06.033Z,0.00
2019-05-05T02:11:05.228Z,0.00
2019-05-05T02:12:05.169Z,0.00
2019-05-05T02:13:04.678Z,0.00
2019-05-05T02:14:05.068Z,0.00
2019-05-05T02:15:04.297Z,0.00
2019-05-05T02:16:04.583Z,0.00
2019-05-05T02:17:05.088Z,0.00
2019-05-05T02:18:04.639Z,0.00
2019-05-05T02:19:05.046Z,0.00
2019-05-05T02:20:05.265Z,0.00
2019-05-05T02:21:04.997Z,0.00
2019-05-05T02:22:05.257Z,0.00
2019-05-05T02:23:04.701Z,0.00
2019-05-05T02:24:05.226Z,0.00
2019-05-05T02:25:04.402Z,0.00
2019-05-05T02:26:04.686Z,0.00
2019-05-05T02:27:05.181Z,0.00
2019-05-05T02:28:04.598Z,0.00
2019-05-05T02:29:04.982Z,0.00
2019-05-05T02:30:06.150Z,0.00
2019-05-05T02:31:05.631Z,0.00
2019-05-05T02:32:06.364Z,0.00
2019-05-05T02:33:06.331Z,0.00
2019-05-05T02:34:05.536Z,0.00
2019-05-05T02:35:06.421Z,0.00
2019-05-05T02:36:05.726Z,0.00
2019-05-05T02:37:05.545Z,0.00
2019-05-05T02:38:06.503Z,0.00
2019-05-05T02:39:05.603Z,0.00
2019-05-05T02:40:07.555Z,0.00
2019-05-05T02:41:05.489Z,0.00
2019-05-05T02:42:05.902Z,0.00
2019-05-05T02:43:05.628Z,0.00
2019-05-05T02:44:05.367Z,0.00
2019-05-05T02:45:05.812Z,0.00
2019-05-05T02:46:05.770Z,0.00
2019-05-05T02:47:05.524Z,0.00
2019-05-05T02:48:06.176Z,0.00
2019-05-05T02:49:05.731Z,0.00
2019-05-05T02:50:05.670Z,0.00
2019-05-05T02:51:07.006Z,0.00
2019-05-05T02:52:05.768Z,0.00
2019-05-05T02:53:05.819Z,0.00
2019-05-05T02:54:05.871Z,0.00
2019-05-05T02:55:05.921Z,0.00
2019-05-05T02:56:05.971Z,0.00
2019-05-05T02:57:06.020Z,0.00
2019-05-05T02:58:06.076Z,0.00
2019-05-05T02:59:06.122Z,0.00
2019-05-05T03:00:06.173Z,0.00
2019-05-05T03:01:06.224Z,0.00
2019-05-05T03:02:06.274Z,0.00
2019-05-05T03:03:06.325Z,0.00
2019-05-05T03:04:06.374Z,0.00
2019-05-05T03:05:06.426Z,0.00
2019-05-05T03:06:06.476Z,0.00
2019-05-05T03:07:06.530Z,0.00
2019-05-05T03:08:06.575Z,0.00
2019-05-05T03:09:06.626Z,0.00
2019-05-05T03:10:06.677Z,0.00
2019-05-05T03:11:06.730Z,0.00
2019-05-05T03:12:06.779Z,0.00
2019-05-05T03:13:06.829Z,0.00
2019-05-05T03:14:06.880Z,0.00
2019-05-05T03:15:06.931Z,0.00
2019-05-05T03:16:06.980Z,0.00
2019-05-05T03:17:07.033Z,0.00
2019-05-05T03:18:07.082Z,0.00
2019-05-05T03:19:07.133Z,0.00
2019-05-05T03:20:07.184Z,0.00
2019-05-05T03:21:07.554Z,0.00
2019-05-05T03:22:07.285Z,0.00
2019-05-05T03:23:07.336Z,0.00
2019-05-05T03:24:07.385Z,0.00
2019-05-05T03:25:07.435Z,0.00
2019-05-05T03:26:07.850Z,0.00
2019-05-05T03:27:07.538Z,0.00
2019-05-05T03:28:07.589Z,4.00
2019-05-05T03:29:07.639Z,4.00
2019-05-05T03:30:07.690Z,0.00
2019-05-05T03:31:07.741Z,0.00
2019-05-05T03:32:11.477Z,4.00
2019-05-05T03:33:07.844Z,4.00
2019-05-05T03:34:07.895Z,4.00
2019-05-05T03:35:07.946Z,4.00
2019-05-05T03:36:07.994Z,4.00
2019-05-05T03:37:08.047Z,8.00
2019-05-05T03:38:08.096Z,8.00
2019-05-05T03:39:08.147Z,8.00
2019-05-05T03:40:08.196Z,12.00
2019-05-05T03:41:08.248Z,12.00
2019-05-05T03:42:08.298Z,12.00
2019-05-05T03:43:08.348Z,12.00
2019-05-05T03:44:08.399Z,16.00
2019-05-05T03:45:08.450Z,20.00
2019-05-05T03:46:08.518Z,20.00
2019-05-05T03:47:08.555Z,28.00
2019-05-05T03:48:08.601Z,28.00
2019-05-05T03:49:08.692Z,32.00
2019-05-05T03:50:08.707Z,40.00
2019-05-05T03:51:18.126Z,44.00
2019-05-05T03:52:08.805Z,48.00
2019-05-05T03:53:08.856Z,60.00
2019-05-05T03:54:08.907Z,68.00
2019-05-05T03:55:08.961Z,76.00
2019-05-05T03:56:09.009Z,88.00
2019-05-05T03:57:09.091Z,96.00
2019-05-05T03:58:09.109Z,108.00
2019-05-05T03:59:09.184Z,116.00
2019-05-05T04:00:09.216Z,128.00
2019-05-05T04:01:09.797Z,144.00
2019-05-05T04:02:09.927Z,156.00
2019-05-05T04:03:09.856Z,172.00
2019-05-05T04:04:09.885Z,188.00
2019-05-05T04:05:09.923Z,200.00
2019-05-05T04:06:09.517Z,212.00
2019-05-05T04:07:09.570Z,224.00
2019-05-05T04:08:09.617Z,236.00
2019-05-05T04:09:09.669Z,244.00
2019-05-05T04:10:09.720Z,264.00
2019-05-05T04:11:09.776Z,284.00
2019-05-05T04:12:09.820Z,304.00
2019-05-05T04:13:09.871Z,328.00
2019-05-05T04:14:09.922Z,344.00
2019-05-05T04:15:09.974Z,360.00
2019-05-05T04:16:10.024Z,380.00
2019-05-05T04:17:10.074Z,404.00
2019-05-05T04:18:10.126Z,440.00
2019-05-05T04:19:10.177Z,480.00
2019-05-05T04:20:10.227Z,508.00
2019-05-05T04:21:10.278Z,536.00
2019-05-05T04:22:10.329Z,584.00
2019-05-05T04:23:10.379Z,624.00
2019-05-05T04:24:10.431Z,660.00
2019-05-05T04:25:10.481Z,696.00
2019-05-05T04:26:10.531Z,732.00
2019-05-05T04:27:10.583Z,764.00
2019-05-05T04:28:10.633Z,784.00
2019-05-05T04:29:10.684Z,812.00
2019-05-05T04:30:10.736Z,836.00
2019-05-05T04:31:10.787Z,864.00
2019-05-05T04:32:10.836Z,892.00
2019-05-05T04:33:10.887Z,924.00
2019-05-05T04:34:10.938Z,964.00
2019-05-05T04:35:10.989Z,1008.00
2019-05-05T04:36:11.040Z,1048.00
2019-05-05T04:37:11.092Z,1076.00
2019-05-05T04:38:11.142Z,1128.00
2019-05-05T04:39:11.193Z,1176.00
2019-05-05T04:40:11.244Z,1212.00
2019-05-05T04:41:11.294Z,1260.00
2019-05-05T04:42:11.344Z,1312.00
2019-05-05T04:43:11.397Z,1388.00
2019-05-05T04:44:11.447Z,1440.00
2019-05-05T04:45:11.499Z,1496.00
2019-05-05T04:46:11.550Z,1524.00
2019-05-05T04:47:11.601Z,1492.00
2019-05-05T04:48:13.651Z,1484.00
2019-05-05T04:49:11.702Z,1544.00
2019-05-05T04:50:11.753Z,1612.00
2019-05-05T04:51:13.768Z,1680.00
2019-05-05T04:52:11.855Z,1744.00
2019-05-05T04:53:13.523Z,1848.00
2019-05-05T04:54:14.060Z,1868.00
2019-05-05T04:55:13.798Z,1928.00
2019-05-05T04:56:13.646Z,2028.00
2019-05-05T04:57:12.110Z,2196.00
2019-05-05T04:58:13.713Z,2308.00
2019-05-05T04:59:14.298Z,2264.00
2019-05-05T05:00:13.698Z,2168.00
2019-05-05T05:01:13.577Z,2112.00
2019-05-05T05:02:14.293Z,2116.00
2019-05-05T05:03:13.339Z,2232.00
2019-05-05T05:04:13.778Z,2212.00
2019-05-05T05:05:14.382Z,1996.00
2019-05-05T05:06:14.542Z,2048.00
2019-05-05T05:07:13.593Z,1976.00
2019-05-05T05:08:13.939Z,1916.00
2019-05-05T05:09:14.536Z,1916.00
2019-05-05T05:10:13.813Z,1904.00
2019-05-05T05:11:14.148Z,1948.00
2019-05-05T05:12:14.643Z,1980.00
2019-05-05T05:13:13.847Z,2012.00
2019-05-05T05:14:14.408Z,2156.00
2019-05-05T05:15:14.654Z,2452.00
2019-05-05T05:16:13.847Z,2816.00
2019-05-05T05:17:14.123Z,3564.00
2019-05-05T05:18:14.811Z,3676.00
2019-05-05T05:19:13.894Z,3532.00
2019-05-05T05:20:14.131Z,3804.00
2019-05-05T05:21:14.528Z,4060.00
2019-05-05T05:22:13.742Z,4152.00
2019-05-05T05:23:14.114Z,4296.00
2019-05-05T05:24:14.656Z,4528.00
2019-05-05T05:25:13.737Z,4748.00
2019-05-05T05:26:13.987Z,4596.00
2019-05-05T05:27:13.942Z,4580.00
2019-05-05T05:28:14.326Z,4588.00
2019-05-05T05:29:15.101Z,4652.00
2019-05-05T05:30:13.975Z,4784.00
2019-05-05T05:31:14.145Z,4916.00
2019-05-05T05:32:15.567Z,5020.00
2019-05-05T05:33:14.958Z,4936.00
2019-05-05T05:34:14.833Z,4848.00
2019-05-05T05:35:14.310Z,4860.00
2019-05-05T05:36:14.518Z,4984.00
2019-05-05T05:37:14.169Z,5128.00
2019-05-05T05:38:14.287Z,5204.00
2019-05-05T05:39:14.267Z,5220.00
2019-05-05T05:40:14.527Z,5248.00
2019-05-05T05:41:14.371Z,5352.00
2019-05-05T05:42:14.423Z,5548.00
2019-05-05T05:43:14.476Z,5704.00
2019-05-05T05:44:14.526Z,5792.00
2019-05-05T05:45:14.690Z,5916.00
2019-05-05T05:46:14.632Z,6220.00
2019-05-05T05:47:14.682Z,6344.00
2019-05-05T05:48:14.740Z,6268.00
2019-05-05T05:49:14.785Z,6416.00
2019-05-05T05:50:14.839Z,6556.00
2019-05-05T05:51:15.368Z,6564.00
2019-05-05T05:52:18.959Z,6604.00
2019-05-05T05:53:14.995Z,6936.00
2019-05-05T05:54:15.047Z,6932.00
2019-05-05T05:55:15.099Z,6824.00
2019-05-05T05:56:15.150Z,7020.00
2019-05-05T05:57:15.204Z,7044.00
2019-05-05T05:58:15.258Z,7044.00
2019-05-05T05:59:15.308Z,7156.00
2019-05-05T06:00:15.370Z,7388.00
2019-05-05T06:01:16.014Z,7532.00
2019-05-05T06:02:15.927Z,7512.00
2019-05-05T06:03:16.109Z,7504.00
2019-05-05T06:04:15.568Z,7432.00
2019-05-05T06:05:15.621Z,7240.00
2019-05-05T06:06:15.674Z,6876.00
2019-05-05T06:07:15.727Z,6608.00
2019-05-05T06:08:15.783Z,6544.00
2019-05-05T06:09:15.831Z,6568.00
2019-05-05T06:10:24.328Z,6748.00
2019-05-05T06:11:15.937Z,6880.00
2019-05-05T06:12:15.988Z,6880.00
2019-05-05T06:13:16.048Z,7092.00
2019-05-05T06:14:16.094Z,7412.00
2019-05-05T06:15:16.147Z,7076.00
2019-05-05T06:16:16.201Z,6584.00
2019-05-05T06:17:16.252Z,6436.00
2019-05-05T06:18:16.305Z,6424.00
2019-05-05T06:19:16.360Z,6292.00
2019-05-05T06:20:16.409Z,6268.00
2019-05-05T06:21:16.463Z,6212.00
2019-05-05T06:22:28.213Z,6128.00
2019-05-05T06:23:16.567Z,5956.00
2019-05-05T06:24:16.621Z,5888.00
2019-05-05T06:25:16.678Z,5924.00
2019-05-05T06:26:16.727Z,6540.00
2019-05-05T06:27:16.780Z,8116.00
2019-05-05T06:28:16.833Z,9124.00
2019-05-05T06:29:16.885Z,9436.00
2019-05-05T06:30:16.939Z,9524.00
2019-05-05T06:31:16.992Z,8672.00
2019-05-05T06:32:17.045Z,8160.00
2019-05-05T06:33:17.098Z,9072.00
2019-05-05T06:34:17.151Z,9884.00
2019-05-05T06:35:17.204Z,9928.00
2019-05-05T06:36:17.258Z,10036.00
2019-05-05T06:37:17.311Z,10088.00
2019-05-05T06:38:17.364Z,10004.00
2019-05-05T06:39:17.417Z,10032.00
2019-05-05T06:40:17.472Z,9924.00
2019-05-05T06:41:17.523Z,9856.00
2019-05-05T06:42:17.585Z,9992.00
2019-05-05T06:43:17.631Z,10344.00
2019-05-05T06:44:17.687Z,10648.00
2019-05-05T06:45:17.738Z,10680.00
2019-05-05T06:46:17.792Z,10324.00
2019-05-05T06:47:17.846Z,9964.00
2019-05-05T06:48:17.898Z,9796.00
2019-05-05T06:49:18.356Z,9776.00
2019-05-05T06:50:18.009Z,9972.00
2019-05-05T06:51:18.060Z,9936.00
2019-05-05T06:52:18.115Z,9864.00
2019-05-05T06:53:18.166Z,10464.00
2019-05-05T06:54:18.222Z,10944.00
2019-05-05T06:55:18.276Z,10736.00
2019-05-05T06:56:18.328Z,10380.00
2019-05-05T06:57:18.385Z,10632.00
2019-05-05T06:58:18.438Z,10784.00
2019-05-05T06:59:18.576Z,10656.00
2019-05-05T07:00:18.544Z,10652.00
2019-05-05T07:01:19.332Z,10908.00
2019-05-05T07:02:18.655Z,10832.00
2019-05-05T07:03:18.707Z,10688.00
2019-05-05T07:04:18.760Z,10864.00
2019-05-05T07:05:18.817Z,10892.00
2019-05-05T07:06:18.870Z,10548.00
2019-05-05T07:07:18.929Z,10896.00
2019-05-05T07:08:18.979Z,11712.00
2019-05-05T07:09:19.403Z,12544.00
2019-05-05T07:10:19.088Z,13340.00
2019-05-05T07:11:19.260Z,13596.00
2019-05-05T07:12:19.199Z,13528.00
2019-05-05T07:13:19.260Z,12964.00
2019-05-05T07:14:19.306Z,12140.00
2019-05-05T07:15:19.360Z,11652.00
2019-05-05T07:16:19.422Z,11700.00
2019-05-05T07:17:19.470Z,11748.00
2019-05-05T07:18:19.553Z,11560.00
2019-05-05T07:19:19.580Z,12000.00
2019-05-05T07:20:19.635Z,12056.00
2019-05-05T07:21:19.691Z,10532.00
2019-05-05T07:22:19.746Z,9968.00
2019-05-05T07:23:19.802Z,11036.00
2019-05-05T07:24:19.870Z,11692.00
2019-05-05T07:25:19.911Z,12440.00
2019-05-05T07:26:19.966Z,14036.00
2019-05-05T07:27:20.021Z,15496.00
2019-05-05T07:28:20.077Z,15784.00
2019-05-05T07:29:20.133Z,14612.00
2019-05-05T07:30:20.187Z,12980.00
2019-05-05T07:31:20.244Z,12292.00
2019-05-05T07:32:20.299Z,11440.00
2019-05-05T07:33:20.357Z,11440.00
2019-05-05T07:34:20.409Z,11716.00
2019-05-05T07:35:20.473Z,12216.00
2019-05-05T07:36:20.521Z,12524.00
2019-05-05T07:37:20.577Z,12268.00
2019-05-05T07:38:20.635Z,13768.00
2019-05-05T07:39:20.690Z,14280.00
2019-05-05T07:40:20.742Z,13996.00
2019-05-05T07:41:20.800Z,15324.00
2019-05-05T07:42:20.855Z,16680.00
2019-05-05T07:43:20.912Z,17696.00
2019-05-05T07:44:28.413Z,18048.00
2019-05-05T07:45:25.158Z,19072.00
2019-05-05T07:46:21.079Z,19968.00
2019-05-05T07:47:21.143Z,19968.00
2019-05-05T07:48:21.192Z,17728.00
2019-05-05T07:49:21.247Z,13896.00
2019-05-05T07:50:31.282Z,11060.00
2019-05-05T07:51:21.361Z,9052.00
2019-05-05T07:52:23.594Z,8464.00
2019-05-05T07:53:21.499Z,8760.00
2019-05-05T07:54:23.539Z,8340.00
2019-05-05T07:55:23.655Z,7028.00
2019-05-05T07:56:23.661Z,6044.00
2019-05-05T07:57:23.678Z,6092.00
2019-05-05T07:58:21.756Z,6300.00
2019-05-05T07:59:23.832Z,5712.00
2019-05-05T08:00:23.936Z,5256.00
2019-05-05T08:01:21.927Z,5448.00
2019-05-05T08:02:23.680Z,6088.00
2019-05-05T08:03:23.655Z,6924.00
2019-05-05T08:04:24.112Z,7984.00
2019-05-05T08:05:22.151Z,9192.00
2019-05-05T08:06:23.676Z,10132.00
2019-05-05T08:07:24.025Z,11068.00
2019-05-05T08:08:24.300Z,11984.00
2019-05-05T08:09:24.670Z,12988.00
2019-05-05T08:10:24.102Z,14416.00
2019-05-05T08:11:23.863Z,16096.00
2019-05-05T08:12:24.759Z,16760.00
2019-05-05T08:13:24.318Z,15064.00
2019-05-05T08:14:24.561Z,12856.00
2019-05-05T08:15:23.781Z,10612.00
2019-05-05T08:16:24.250Z,9368.00
2019-05-05T08:17:23.551Z,8964.00
2019-05-05T08:18:24.300Z,9180.00
2019-05-05T08:19:24.187Z,9392.00
2019-05-05T08:20:23.784Z,8916.00
2019-05-05T08:21:24.057Z,8268.00
2019-05-05T08:22:23.609Z,8004.00
2019-05-05T08:23:30.322Z,7456.00
2019-05-05T08:24:24.412Z,6892.00
2019-05-05T08:25:36.166Z,6844.00
2019-05-05T08:26:23.707Z,6832.00
2019-05-05T08:27:24.984Z,7124.00
2019-05-05T08:28:23.750Z,7748.00
2019-05-05T08:29:23.995Z,8288.00
2019-05-05T08:30:24.407Z,9180.00
2019-05-05T08:31:24.977Z,9752.00
2019-05-05T08:32:23.887Z,9984.00
2019-05-05T08:33:24.172Z,10108.00
2019-05-05T08:34:24.453Z,10504.00
2019-05-05T08:35:23.901Z,11200.00
2019-05-05T08:36:23.894Z,12484.00
2019-05-05T08:38:00.870Z,14296.00
2019-05-05T08:38:24.314Z,15076.00
2019-05-05T08:39:24.537Z,15024.00
2019-05-05T08:40:24.150Z,15024.00
2019-05-05T08:41:24.450Z,15184.00
2019-05-05T08:42:24.786Z,15864.00
2019-05-05T08:43:24.320Z,15880.00
2019-05-05T08:44:24.342Z,15552.00
2019-05-05T08:45:26.640Z,14764.00
2019-05-05T08:46:24.792Z,14876.00
2019-05-05T08:47:24.935Z,15328.00
2019-05-05T08:48:24.740Z,14940.00
2019-05-05T08:49:24.628Z,14288.00
2019-05-05T08:50:26.967Z,14132.00
2019-05-05T08:51:24.806Z,14756.00
2019-05-05T08:52:24.794Z,16716.00
2019-05-05T08:53:24.848Z,16980.00
2019-05-05T08:54:24.906Z,14028.00
2019-05-05T08:55:28.343Z,12052.00
2019-05-05T08:56:25.018Z,11940.00
2019-05-05T08:57:25.076Z,10808.00
2019-05-05T08:58:25.144Z,9100.00
2019-05-05T08:59:25.190Z,7124.00
2019-05-05T09:00:25.743Z,6584.00
2019-05-05T09:01:25.306Z,7076.00
2019-05-05T09:02:25.358Z,8640.00
2019-05-05T09:03:25.421Z,9284.00
2019-05-05T09:04:25.472Z,9868.00
2019-05-05T09:05:25.529Z,10284.00
2019-05-05T09:06:25.585Z,10356.00
2019-05-05T09:07:25.643Z,10816.00
2019-05-05T09:08:25.700Z,11152.00
2019-05-05T09:09:25.754Z,11956.00
2019-05-05T09:10:25.811Z,13712.00
2019-05-05T09:11:25.867Z,15344.00
2019-05-05T09:12:25.924Z,17344.00
2019-05-05T09:13:25.982Z,20832.00
2019-05-05T09:14:26.038Z,23680.00
2019-05-05T09:15:26.095Z,23968.00
2019-05-05T09:16:26.149Z,23392.00
2019-05-05T09:17:28.026Z,21248.00
2019-05-05T09:18:26.263Z,18016.00
2019-05-05T09:19:26.977Z,14616.00
2019-05-05T09:20:26.378Z,12016.00
2019-05-05T09:21:26.435Z,14496.00
2019-05-05T09:22:26.492Z,18112.00
2019-05-05T09:23:26.549Z,19296.00
2019-05-05T09:24:26.614Z,17064.00
2019-05-05T09:25:26.663Z,14620.00
2019-05-05T09:26:26.719Z,12924.00
2019-05-05T09:27:28.379Z,11888.00
2019-05-05T09:28:26.833Z,11460.00
2019-05-05T09:29:26.890Z,11276.00
2019-05-05T09:30:26.948Z,12224.00
2019-05-05T09:31:27.007Z,13308.00
2019-05-05T09:32:27.063Z,14668.00
2019-05-05T09:33:27.119Z,17312.00
2019-05-05T09:34:27.178Z,20896.00
2019-05-05T09:35:27.234Z,23904.00
2019-05-05T09:36:27.290Z,24544.00
2019-05-05T09:37:27.348Z,23552.00
2019-05-05T09:38:30.064Z,23264.00
2019-05-05T09:39:27.464Z,21696.00
2019-05-05T09:40:27.525Z,21792.00
2019-05-05T09:41:27.577Z,25024.00
2019-05-05T09:42:27.636Z,29472.00
2019-05-05T09:43:27.694Z,30784.00
2019-05-05T09:44:27.751Z,28736.00
2019-05-05T09:45:27.808Z,26048.00
2019-05-05T09:46:27.867Z,23200.00
2019-05-05T09:47:27.926Z,17440.00
2019-05-05T09:48:27.981Z,14568.00
2019-05-05T09:49:28.040Z,15424.00
2019-05-05T09:50:28.099Z,18624.00
2019-05-05T09:51:28.158Z,22112.00
2019-05-05T09:52:28.217Z,23584.00
2019-05-05T09:53:28.274Z,22144.00
2019-05-05T09:54:28.333Z,20064.00
2019-05-05T09:55:28.397Z,18976.00
2019-05-05T09:56:28.450Z,18752.00
2019-05-05T09:57:28.506Z,19296.00
2019-05-05T09:58:28.567Z,19200.00
2019-05-05T09:59:28.625Z,20736.00
2019-05-05T10:00:28.685Z,23072.00
2019-05-05T10:01:28.744Z,24928.00
2019-05-05T10:02:28.800Z,25824.00
2019-05-05T10:03:28.857Z,24768.00
2019-05-05T10:04:28.916Z,21120.00
2019-05-05T10:05:28.977Z,19744.00
2019-05-05T10:06:29.034Z,20768.00
2019-05-05T10:07:29.091Z,23072.00
2019-05-05T10:08:29.150Z,25280.00
2019-05-05T10:09:29.208Z,25792.00
2019-05-05T10:10:29.266Z,25312.00
2019-05-05T10:11:29.326Z,21728.00
2019-05-05T10:12:29.383Z,17600.00
2019-05-05T10:13:29.444Z,15576.00
2019-05-05T10:14:30.070Z,15240.00
2019-05-05T10:15:29.560Z,16100.00
2019-05-05T10:16:29.619Z,18368.00
2019-05-05T10:17:29.678Z,20480.00
2019-05-05T10:18:29.735Z,20352.00
2019-05-05T10:19:29.801Z,20480.00
2019-05-05T10:20:29.852Z,23712.00
2019-05-05T10:21:29.911Z,38720.00
2019-05-05T10:22:29.971Z,37280.00
2019-05-05T10:23:30.028Z,53856.00
2019-05-05T10:24:31.173Z,35392.00
2019-05-05T10:25:30.146Z,22336.00
2019-05-05T10:26:30.206Z,29280.00
2019-05-05T10:27:42.654Z,41696.00
2019-05-05T10:28:30.323Z,49152.00
2019-05-05T10:29:30.383Z,24032.00
2019-05-05T10:30:30.446Z,20544.00
2019-05-05T10:31:30.502Z,21024.00
2019-05-05T10:32:30.562Z,25664.00
2019-05-05T10:33:30.620Z,16320.00
2019-05-05T10:34:30.681Z,14120.00
2019-05-05T10:35:30.741Z,13816.00
2019-05-05T10:36:30.799Z,14676.00
2019-05-05T10:37:30.861Z,17108.00
2019-05-05T10:38:30.917Z,21280.00
2019-05-05T10:39:30.977Z,23104.00
2019-05-05T10:40:31.037Z,22176.00
2019-05-05T10:41:31.095Z,23584.00
2019-05-05T10:42:31.155Z,22656.00
2019-05-05T10:43:31.215Z,42048.00
2019-05-05T10:44:31.274Z,34048.00
2019-05-05T10:45:31.332Z,18464.00
2019-05-05T10:46:31.394Z,18720.00
2019-05-05T10:47:33.069Z,23104.00
2019-05-05T10:48:31.510Z,82496.00
2019-05-05T10:49:33.503Z,28448.00
2019-05-05T10:50:33.885Z,24704.00
2019-05-05T10:51:31.690Z,17984.00
2019-05-05T10:52:33.649Z,21280.00
2019-05-05T10:53:31.807Z,61376.00
2019-05-05T10:54:43.264Z,70720.00
2019-05-05T10:55:31.927Z,17308.00
2019-05-05T10:56:31.986Z,20576.00
2019-05-05T10:57:34.038Z,27232.00
2019-05-05T10:58:33.594Z,40768.00
2019-05-05T10:59:34.182Z,74112.00
2019-05-05T11:00:33.770Z,34624.00
2019-05-05T11:01:32.287Z,67168.00
2019-05-05T11:02:34.498Z,35168.00
2019-05-05T11:03:34.324Z,22528.00
2019-05-05T11:04:33.526Z,30944.00
2019-05-05T11:05:33.944Z,49280.00
2019-05-05T11:06:32.592Z,18528.00
2019-05-05T11:07:34.098Z,16860.00
2019-05-05T11:08:34.716Z,22720.00
2019-05-05T11:09:33.717Z,68928.00
2019-05-05T11:10:33.947Z,20032.00
2019-05-05T11:11:34.375Z,69920.00
2019-05-05T11:12:33.731Z,69920.00
2019-05-05T11:13:34.434Z,68960.00
2019-05-05T11:14:33.670Z,68416.00
2019-05-05T11:15:33.605Z,64480.00
2019-05-05T11:16:33.204Z,37696.00
2019-05-05T11:17:33.264Z,32576.00
2019-05-05T11:18:34.520Z,30304.00
2019-05-05T11:19:33.665Z,32928.00
2019-05-05T11:20:34.003Z,17408.00
2019-05-05T11:21:34.188Z,16996.00
2019-05-05T11:22:34.661Z,18080.00
2019-05-05T11:23:34.574Z,21120.00
2019-05-05T11:24:34.609Z,62592.00
2019-05-05T11:25:33.895Z,28128.00
2019-05-05T11:26:33.990Z,39104.00
2019-05-05T11:27:34.538Z,21024.00
2019-05-05T11:28:34.062Z,55232.00
2019-05-05T11:29:34.010Z,15544.00
2019-05-05T11:30:34.110Z,14388.00
2019-05-05T11:31:34.390Z,51840.00
2019-05-05T11:32:34.195Z,51936.00
2019-05-05T11:33:34.603Z,53216.00
2019-05-05T11:34:34.320Z,55008.00
2019-05-05T11:35:34.380Z,26528.00
2019-05-05T11:36:34.638Z,26848.00
2019-05-05T11:37:34.502Z,51456.00
2019-05-05T11:38:34.568Z,28096.00
2019-05-05T11:39:34.627Z,28032.00
2019-05-05T11:40:34.689Z,54848.00
2019-05-05T11:41:34.750Z,54016.00
2019-05-05T11:42:34.815Z,25856.00
2019-05-05T11:43:34.882Z,50976.00
2019-05-05T11:44:34.939Z,19008.00
2019-05-05T11:45:35.000Z,20064.00
2019-05-05T11:46:35.063Z,19936.00
2019-05-05T11:47:35.126Z,19040.00
2019-05-05T11:48:35.188Z,18848.00
2019-05-05T11:49:35.255Z,19424.00
2019-05-05T11:50:35.314Z,21504.00
2019-05-05T11:51:35.375Z,35200.00
2019-05-05T11:52:35.438Z,32992.00
2019-05-05T11:53:35.498Z,19456.00
2019-05-05T11:54:35.570Z,18720.00
2019-05-05T11:55:35.624Z,15264.00
2019-05-05T11:56:35.685Z,13604.00
2019-05-05T11:57:35.746Z,11124.00
2019-05-05T11:58:35.808Z,8424.00
2019-05-05T11:59:35.868Z,6808.00
2019-05-05T12:00:35.930Z,5964.00
2019-05-05T12:01:35.989Z,5692.00
2019-05-05T12:02:36.052Z,5628.00
2019-05-05T12:03:37.821Z,5356.00
2019-05-05T12:04:36.171Z,4672.00
2019-05-05T12:05:36.233Z,3916.00
2019-05-05T12:06:36.291Z,3280.00
2019-05-05T12:07:36.354Z,2920.00
2019-05-05T12:08:36.411Z,2772.00
2019-05-05T12:09:36.471Z,2904.00
2019-05-05T12:10:36.530Z,3228.00
2019-05-05T12:11:36.591Z,3596.00
2019-05-05T12:12:36.649Z,3928.00
2019-05-05T12:13:36.706Z,4268.00
2019-05-05T12:14:36.766Z,4636.00
2019-05-05T12:15:36.825Z,5008.00
2019-05-05T12:16:36.884Z,5416.00
2019-05-05T12:17:36.939Z,5716.00
2019-05-05T12:18:36.998Z,5956.00
2019-05-05T12:19:37.056Z,6616.00
2019-05-05T12:20:37.115Z,8148.00